sensor_id;sensor_type;location;lat;lon;timestamp;temperature;humidity
17992;DHT22;9121;50.926;5.340;2024-01-27T00:02:20;5.10;99.90
17992;DHT22;9121;50.926;5.340;2024-01-27T00:04:47;5.00;99.90
17992;DHT22;9121;50.926;5.340;2024-01-27T00:07:17;4.90;99.90
17992;DHT22;9121;50.926;5.340;2024-01-27T00:09:44;4.90;99.90
17992;DHT22;9121;50.926;5.340;2024-01-27T00:12:11;4.80;99.90
17992;DHT22;9121;50.926;5.340;2024-01-27T00:14:38;4.90;99.90
17992;DHT22;9121;50.926;5.340;2024-01-27T00:17:06;4.80;99.90
17992;DHT22;9121;50.926;5.340;2024-01-27T00:19:32;5.00;99.90
17992;DHT22;9121;50.926;5.340;2024-01-27T00:21:59;4.90;99.90
17992;DHT22;9121;50.926;5.340;2024-01-27T00:24:28;5.00;99.90
17992;DHT22;9121;50.926;5.340;2024-01-27T00:26:55;5.00;99.90
17992;DHT22;9121;50.926;5.340;2024-01-27T00:29:22;5.00;99.90
17992;DHT22;9121;50.926;5.340;2024-01-27T00:31:49;5.00;99.90
17992;DHT22;9121;50.926;5.340;2024-01-27T00:34:16;5.10;99.90
17992;DHT22;9121;50.926;5.340;2024-01-27T00:36:43;5.10;99.90
17992;DHT22;9121;50.926;5.340;2024-01-27T00:39:14;5.10;99.90
17992;DHT22;9121;50.926;5.340;2024-01-27T00:41:42;5.10;99.90
17992;DHT22;9121;50.926;5.340;2024-01-27T00:44:09;5.00;99.90
17992;DHT22;9121;50.926;5.340;2024-01-27T00:46:37;4.90;99.90
17992;DHT22;9121;50.926;5.340;2024-01-27T00:49:04;4.90;99.90
17992;DHT22;9121;50.926;5.340;2024-01-27T00:51:32;4.90;99.90
17992;DHT22;9121;50.926;5.340;2024-01-27T00:53:59;4.80;99.90
17992;DHT22;9121;50.926;5.340;2024-01-27T00:56:26;4.90;99.90
17992;DHT22;9121;50.926;5.340;2024-01-27T00:58:54;4.80;99.90
17992;DHT22;9121;50.926;5.340;2024-01-27T01:01:21;4.80;99.90
17992;DHT22;9121;50.926;5.340;2024-01-27T01:03:48;4.80;99.90
17992;DHT22;9121;50.926;5.340;2024-01-27T01:06:15;4.80;99.90
17992;DHT22;9121;50.926;5.340;2024-01-27T01:08:42;4.70;99.90
17992;DHT22;9121;50.926;5.340;2024-01-27T01:11:09;4.60;99.90
17992;DHT22;9121;50.926;5.340;2024-01-27T01:13:36;4.60;99.90
17992;DHT22;9121;50.926;5.340;2024-01-27T01:16:05;4.60;99.90
17992;DHT22;9121;50.926;5.340;2024-01-27T01:18:33;4.50;99.90
17992;DHT22;9121;50.926;5.340;2024-01-27T01:21:00;4.50;99.90
17992;DHT22;9121;50.926;5.340;2024-01-27T01:23:27;4.50;99.90
17992;DHT22;9121;50.926;5.340;2024-01-27T01:25:54;4.50;99.90
17992;DHT22;9121;50.926;5.340;2024-01-27T01:28:22;4.40;99.90
17992;DHT22;9121;50.926;5.340;2024-01-27T01:30:49;4.60;99.90
17992;DHT22;9121;50.926;5.340;2024-01-27T01:33:17;4.70;99.90
17992;DHT22;9121;50.926;5.340;2024-01-27T01:35:44;4.70;99.90
17992;DHT22;9121;50.926;5.340;2024-01-27T01:38:11;4.80;99.90
17992;DHT22;9121;50.926;5.340;2024-01-27T01:40:38;4.70;99.90
17992;DHT22;9121;50.926;5.340;2024-01-27T01:43:09;4.60;99.90
17992;DHT22;9121;50.926;5.340;2024-01-27T01:45:37;4.50;99.90
17992;DHT22;9121;50.926;5.340;2024-01-27T01:48:04;4.60;99.90
17992;DHT22;9121;50.926;5.340;2024-01-27T01:50:33;4.60;99.90
17992;DHT22;9121;50.926;5.340;2024-01-27T01:53:01;4.60;99.90
17992;DHT22;9121;50.926;5.340;2024-01-27T01:55:28;4.60;99.90
17992;DHT22;9121;50.926;5.340;2024-01-27T01:57:55;4.60;99.90
17992;DHT22;9121;50.926;5.340;2024-01-27T02:00:22;4.60;99.90
17992;DHT22;9121;50.926;5.340;2024-01-27T02:02:49;4.50;99.90
17992;DHT22;9121;50.926;5.340;2024-01-27T02:05:16;4.50;99.90
17992;DHT22;9121;50.926;5.340;2024-01-27T02:07:44;4.50;99.90
17992;DHT22;9121;50.926;5.340;2024-01-27T02:10:15;4.50;99.90
17992;DHT22;9121;50.926;5.340;2024-01-27T02:12:42;4.50;99.90
17992;DHT22;9121;50.926;5.340;2024-01-27T02:15:10;4.50;99.90
17992;DHT22;9121;50.926;5.340;2024-01-27T02:17:38;4.50;99.90
17992;DHT22;9121;50.926;5.340;2024-01-27T02:20:06;4.60;99.90
17992;DHT22;9121;50.926;5.340;2024-01-27T02:22:34;4.60;99.90
17992;DHT22;9121;50.926;5.340;2024-01-27T02:25:03;4.50;99.90
17992;DHT22;9121;50.926;5.340;2024-01-27T02:27:30;4.40;99.90
17992;DHT22;9121;50.926;5.340;2024-01-27T02:29:57;4.30;99.90
17992;DHT22;9121;50.926;5.340;2024-01-27T02:32:24;4.30;99.90
17992;DHT22;9121;50.926;5.340;2024-01-27T02:34:51;4.30;99.90
17992;DHT22;9121;50.926;5.340;2024-01-27T02:37:18;4.30;99.90
17992;DHT22;9121;50.926;5.340;2024-01-27T02:39:45;4.30;99.90
17992;DHT22;9121;50.926;5.340;2024-01-27T02:42:14;4.30;99.90
17992;DHT22;9121;50.926;5.340;2024-01-27T02:44:41;4.30;99.90
17992;DHT22;9121;50.926;5.340;2024-01-27T02:47:08;4.30;99.90
17992;DHT22;9121;50.926;5.340;2024-01-27T02:49:35;4.20;99.90
17992;DHT22;9121;50.926;5.340;2024-01-27T02:52:02;4.20;99.90
17992;DHT22;9121;50.926;5.340;2024-01-27T02:54:29;4.10;99.90
17992;DHT22;9121;50.926;5.340;2024-01-27T02:56:55;4.20;99.90
17992;DHT22;9121;50.926;5.340;2024-01-27T02:59:24;4.10;99.90
17992;DHT22;9121;50.926;5.340;2024-01-27T03:01:51;4.10;99.90
17992;DHT22;9121;50.926;5.340;2024-01-27T03:04:18;4.20;99.90
17992;DHT22;9121;50.926;5.340;2024-01-27T03:06:44;4.30;99.90
17992;DHT22;9121;50.926;5.340;2024-01-27T03:09:11;4.20;99.90
17992;DHT22;9121;50.926;5.340;2024-01-27T03:11:39;4.20;99.90
17992;DHT22;9121;50.926;5.340;2024-01-27T03:14:06;4.20;99.90
17992;DHT22;9121;50.926;5.340;2024-01-27T03:16:34;4.10;99.90
17992;DHT22;9121;50.926;5.340;2024-01-27T03:19:01;4.10;99.90
17992;DHT22;9121;50.926;5.340;2024-01-27T03:21:29;4.10;99.90
17992;DHT22;9121;50.926;5.340;2024-01-27T03:23:56;4.30;99.90
17992;DHT22;9121;50.926;5.340;2024-01-27T03:26:23;4.30;99.90
17992;DHT22;9121;50.926;5.340;2024-01-27T03:28:50;4.30;99.90
17992;DHT22;9121;50.926;5.340;2024-01-27T03:31:17;4.20;99.90
17992;DHT22;9121;50.926;5.340;2024-01-27T03:33:46;4.10;99.90
17992;DHT22;9121;50.926;5.340;2024-01-27T03:36:13;4.00;99.90
17992;DHT22;9121;50.926;5.340;2024-01-27T03:38:40;3.90;99.90
17992;DHT22;9121;50.926;5.340;2024-01-27T03:41:07;3.90;99.90
17992;DHT22;9121;50.926;5.340;2024-01-27T03:43:34;3.90;99.90
17992;DHT22;9121;50.926;5.340;2024-01-27T03:46:01;3.80;99.90
17992;DHT22;9121;50.926;5.340;2024-01-27T03:48:29;3.80;99.90
17992;DHT22;9121;50.926;5.340;2024-01-27T03:50:57;3.70;99.90
17992;DHT22;9121;50.926;5.340;2024-01-27T03:53:24;3.60;99.90
17992;DHT22;9121;50.926;5.340;2024-01-27T03:55:51;3.60;99.90
17992;DHT22;9121;50.926;5.340;2024-01-27T03:58:18;3.80;99.90
17992;DHT22;9121;50.926;5.340;2024-01-27T04:00:45;3.80;99.90
17992;DHT22;9121;50.926;5.340;2024-01-27T04:03:12;3.80;99.90
17992;DHT22;9121;50.926;5.340;2024-01-27T04:05:39;3.70;99.90
17992;DHT22;9121;50.926;5.340;2024-01-27T04:08:07;3.60;99.90
17992;DHT22;9121;50.926;5.340;2024-01-27T04:10:35;3.70;99.90
17992;DHT22;9121;50.926;5.340;2024-01-27T04:13:03;3.80;99.90
17992;DHT22;9121;50.926;5.340;2024-01-27T04:15:30;3.90;99.90
17992;DHT22;9121;50.926;5.340;2024-01-27T04:18:03;3.70;99.90
17992;DHT22;9121;50.926;5.340;2024-01-27T04:20:30;3.60;99.90
17992;DHT22;9121;50.926;5.340;2024-01-27T04:22:57;3.60;99.90
17992;DHT22;9121;50.926;5.340;2024-01-27T04:25:25;3.50;99.90
17992;DHT22;9121;50.926;5.340;2024-01-27T04:27:52;3.50;99.90
17992;DHT22;9121;50.926;5.340;2024-01-27T04:30:20;3.50;99.90
17992;DHT22;9121;50.926;5.340;2024-01-27T04:32:47;3.50;99.90
17992;DHT22;9121;50.926;5.340;2024-01-27T04:35:14;3.50;99.90
17992;DHT22;9121;50.926;5.340;2024-01-27T04:37:41;3.30;99.90
17992;DHT22;9121;50.926;5.340;2024-01-27T04:40:11;3.30;99.90
17992;DHT22;9121;50.926;5.340;2024-01-27T04:42:40;3.20;99.90
17992;DHT22;9121;50.926;5.340;2024-01-27T04:45:08;3.20;99.90
17992;DHT22;9121;50.926;5.340;2024-01-27T04:47:35;3.30;99.90
17992;DHT22;9121;50.926;5.340;2024-01-27T04:50:02;3.20;99.90
17992;DHT22;9121;50.926;5.340;2024-01-27T04:52:32;3.30;99.90
17992;DHT22;9121;50.926;5.340;2024-01-27T04:54:59;3.20;99.90
17992;DHT22;9121;50.926;5.340;2024-01-27T04:57:26;3.10;99.90
17992;DHT22;9121;50.926;5.340;2024-01-27T04:59:55;3.10;99.90
17992;DHT22;9121;50.926;5.340;2024-01-27T05:02:21;3.10;99.90
17992;DHT22;9121;50.926;5.340;2024-01-27T05:04:48;3.20;99.90
17992;DHT22;9121;50.926;5.340;2024-01-27T05:07:15;3.20;99.90
17992;DHT22;9121;50.926;5.340;2024-01-27T05:09:42;3.10;99.90
17992;DHT22;9121;50.926;5.340;2024-01-27T05:12:09;3.00;99.90
17992;DHT22;9121;50.926;5.340;2024-01-27T05:14:36;2.90;99.90
17992;DHT22;9121;50.926;5.340;2024-01-27T05:17:04;2.90;99.90
17992;DHT22;9121;50.926;5.340;2024-01-27T05:19:31;2.80;99.90
17992;DHT22;9121;50.926;5.340;2024-01-27T05:21:58;2.80;99.90
17992;DHT22;9121;50.926;5.340;2024-01-27T05:24:25;2.60;99.90
17992;DHT22;9121;50.926;5.340;2024-01-27T05:26:52;2.60;99.90
17992;DHT22;9121;50.926;5.340;2024-01-27T05:29:19;2.50;99.90
17992;DHT22;9121;50.926;5.340;2024-01-27T05:31:46;2.40;99.90
17992;DHT22;9121;50.926;5.340;2024-01-27T05:34:14;2.50;99.90
17992;DHT22;9121;50.926;5.340;2024-01-27T05:36:41;2.60;99.90
17992;DHT22;9121;50.926;5.340;2024-01-27T05:39:08;2.60;99.90
17992;DHT22;9121;50.926;5.340;2024-01-27T05:41:35;2.60;99.90
17992;DHT22;9121;50.926;5.340;2024-01-27T05:44:02;2.50;99.90
17992;DHT22;9121;50.926;5.340;2024-01-27T05:46:29;2.50;99.90
17992;DHT22;9121;50.926;5.340;2024-01-27T05:48:56;2.50;99.90
17992;DHT22;9121;50.926;5.340;2024-01-27T05:51:30;2.60;99.90
17992;DHT22;9121;50.926;5.340;2024-01-27T05:53:57;2.60;99.90
17992;DHT22;9121;50.926;5.340;2024-01-27T05:56:23;2.60;99.90
17992;DHT22;9121;50.926;5.340;2024-01-27T05:58:50;2.60;99.90
17992;DHT22;9121;50.926;5.340;2024-01-27T06:01:18;2.70;99.90
17992;DHT22;9121;50.926;5.340;2024-01-27T06:03:45;2.60;99.90
17992;DHT22;9121;50.926;5.340;2024-01-27T06:06:12;2.60;99.90
17992;DHT22;9121;50.926;5.340;2024-01-27T06:08:41;2.50;99.90
17992;DHT22;9121;50.926;5.340;2024-01-27T06:11:08;2.50;99.90
17992;DHT22;9121;50.926;5.340;2024-01-27T06:13:35;2.40;99.90
17992;DHT22;9121;50.926;5.340;2024-01-27T06:16:06;2.40;99.90
17992;DHT22;9121;50.926;5.340;2024-01-27T06:18:34;2.40;99.90
17992;DHT22;9121;50.926;5.340;2024-01-27T06:21:01;2.50;99.90
17992;DHT22;9121;50.926;5.340;2024-01-27T06:23:28;2.50;99.90
17992;DHT22;9121;50.926;5.340;2024-01-27T06:25:57;2.60;99.90
17992;DHT22;9121;50.926;5.340;2024-01-27T06:28:25;2.70;99.90
17992;DHT22;9121;50.926;5.340;2024-01-27T06:30:51;2.70;99.90
17992;DHT22;9121;50.926;5.340;2024-01-27T06:33:18;2.80;99.90
17992;DHT22;9121;50.926;5.340;2024-01-27T06:35:45;2.80;99.90
17992;DHT22;9121;50.926;5.340;2024-01-27T06:38:12;2.80;99.90
17992;DHT22;9121;50.926;5.340;2024-01-27T06:40:39;2.80;99.90
17992;DHT22;9121;50.926;5.340;2024-01-27T06:43:08;2.80;99.90
17992;DHT22;9121;50.926;5.340;2024-01-27T06:45:35;2.70;99.90
17992;DHT22;9121;50.926;5.340;2024-01-27T06:48:03;2.70;99.90
17992;DHT22;9121;50.926;5.340;2024-01-27T06:50:30;2.70;99.90
17992;DHT22;9121;50.926;5.340;2024-01-27T06:52:57;2.80;99.90
17992;DHT22;9121;50.926;5.340;2024-01-27T06:55:23;2.80;99.90
17992;DHT22;9121;50.926;5.340;2024-01-27T06:57:50;2.80;99.90
17992;DHT22;9121;50.926;5.340;2024-01-27T07:00:20;2.80;99.90
17992;DHT22;9121;50.926;5.340;2024-01-27T07:02:47;2.90;99.90
17992;DHT22;9121;50.926;5.340;2024-01-27T07:05:14;2.90;99.90
17992;DHT22;9121;50.926;5.340;2024-01-27T07:07:41;2.70;99.90
17992;DHT22;9121;50.926;5.340;2024-01-27T07:10:08;3.00;99.90
17992;DHT22;9121;50.926;5.340;2024-01-27T07:12:35;3.00;99.90
17992;DHT22;9121;50.926;5.340;2024-01-27T07:15:03;3.00;99.90
17992;DHT22;9121;50.926;5.340;2024-01-27T07:17:32;3.00;99.90
17992;DHT22;9121;50.926;5.340;2024-01-27T07:19:58;3.10;99.90
17992;DHT22;9121;50.926;5.340;2024-01-27T07:22:25;3.10;99.90
17992;DHT22;9121;50.926;5.340;2024-01-27T07:24:52;3.00;99.90
17992;DHT22;9121;50.926;5.340;2024-01-27T07:27:21;3.10;99.90
17992;DHT22;9121;50.926;5.340;2024-01-27T07:29:49;3.20;99.90
17992;DHT22;9121;50.926;5.340;2024-01-27T07:32:16;3.20;99.90
17992;DHT22;9121;50.926;5.340;2024-01-27T07:34:44;3.10;99.90
17992;DHT22;9121;50.926;5.340;2024-01-27T07:37:11;3.00;99.90
17992;DHT22;9121;50.926;5.340;2024-01-27T07:39:38;3.00;99.90
17992;DHT22;9121;50.926;5.340;2024-01-27T07:42:05;3.00;99.90
17992;DHT22;9121;50.926;5.340;2024-01-27T07:44:32;3.00;99.90
17992;DHT22;9121;50.926;5.340;2024-01-27T07:46:59;3.00;99.90
17992;DHT22;9121;50.926;5.340;2024-01-27T07:49:26;3.00;99.90
17992;DHT22;9121;50.926;5.340;2024-01-27T07:51:55;3.00;99.90
17992;DHT22;9121;50.926;5.340;2024-01-27T07:54:22;3.00;99.90
17992;DHT22;9121;50.926;5.340;2024-01-27T07:56:49;2.90;99.90
17992;DHT22;9121;50.926;5.340;2024-01-27T07:59:16;2.90;99.90
17992;DHT22;9121;50.926;5.340;2024-01-27T08:01:43;3.00;99.90
17992;DHT22;9121;50.926;5.340;2024-01-27T08:04:10;3.00;99.90
17992;DHT22;9121;50.926;5.340;2024-01-27T08:06:46;3.00;99.90
17992;DHT22;9121;50.926;5.340;2024-01-27T08:09:16;3.00;99.90
17992;DHT22;9121;50.926;5.340;2024-01-27T08:11:43;3.00;99.90
17992;DHT22;9121;50.926;5.340;2024-01-27T08:14:10;3.10;99.90
17992;DHT22;9121;50.926;5.340;2024-01-27T08:16:37;3.20;99.90
17992;DHT22;9121;50.926;5.340;2024-01-27T08:19:04;3.10;99.90
17992;DHT22;9121;50.926;5.340;2024-01-27T08:21:31;3.20;99.90
17992;DHT22;9121;50.926;5.340;2024-01-27T08:23:58;3.20;99.90
17992;DHT22;9121;50.926;5.340;2024-01-27T08:26:26;3.30;99.90
17992;DHT22;9121;50.926;5.340;2024-01-27T08:28:53;3.40;99.90
17992;DHT22;9121;50.926;5.340;2024-01-27T08:31:21;3.50;99.90
17992;DHT22;9121;50.926;5.340;2024-01-27T08:33:48;3.60;99.90
17992;DHT22;9121;50.926;5.340;2024-01-27T08:36:15;3.70;99.90
17992;DHT22;9121;50.926;5.340;2024-01-27T08:38:42;3.70;99.90
17992;DHT22;9121;50.926;5.340;2024-01-27T08:41:10;3.80;99.90
17992;DHT22;9121;50.926;5.340;2024-01-27T08:43:39;3.80;99.90
17992;DHT22;9121;50.926;5.340;2024-01-27T08:46:06;3.80;99.90
17992;DHT22;9121;50.926;5.340;2024-01-27T08:48:36;3.90;99.90
17992;DHT22;9121;50.926;5.340;2024-01-27T08:51:04;4.00;99.90
17992;DHT22;9121;50.926;5.340;2024-01-27T08:53:31;4.00;99.90
17992;DHT22;9121;50.926;5.340;2024-01-27T08:55:57;4.10;99.90
17992;DHT22;9121;50.926;5.340;2024-01-27T08:58:24;4.10;99.90
17992;DHT22;9121;50.926;5.340;2024-01-27T09:00:53;4.20;99.90
17992;DHT22;9121;50.926;5.340;2024-01-27T09:03:20;4.30;99.90
17992;DHT22;9121;50.926;5.340;2024-01-27T09:05:47;4.30;99.90
17992;DHT22;9121;50.926;5.340;2024-01-27T09:08:14;4.40;99.90
17992;DHT22;9121;50.926;5.340;2024-01-27T09:10:42;4.40;99.90
17992;DHT22;9121;50.926;5.340;2024-01-27T09:13:09;4.40;99.90
17992;DHT22;9121;50.926;5.340;2024-01-27T09:15:36;4.50;99.90
17992;DHT22;9121;50.926;5.340;2024-01-27T09:18:05;4.50;99.90
17992;DHT22;9121;50.926;5.340;2024-01-27T09:20:32;4.50;99.90
17992;DHT22;9121;50.926;5.340;2024-01-27T09:22:59;4.50;99.90
17992;DHT22;9121;50.926;5.340;2024-01-27T09:25:26;4.70;99.90
17992;DHT22;9121;50.926;5.340;2024-01-27T09:27:53;4.80;99.90
17992;DHT22;9121;50.926;5.340;2024-01-27T09:30:20;4.90;99.90
17992;DHT22;9121;50.926;5.340;2024-01-27T09:32:47;5.00;99.90
17992;DHT22;9121;50.926;5.340;2024-01-27T09:35:16;5.00;99.90
17992;DHT22;9121;50.926;5.340;2024-01-27T09:37:43;5.00;99.90
17992;DHT22;9121;50.926;5.340;2024-01-27T09:40:12;5.00;99.90
17992;DHT22;9121;50.926;5.340;2024-01-27T09:42:39;5.10;99.90
17992;DHT22;9121;50.926;5.340;2024-01-27T09:45:09;5.10;99.90
17992;DHT22;9121;50.926;5.340;2024-01-27T09:47:37;5.20;99.90
17992;DHT22;9121;50.926;5.340;2024-01-27T09:50:06;5.20;99.90
17992;DHT22;9121;50.926;5.340;2024-01-27T09:52:39;5.20;99.90
17992;DHT22;9121;50.926;5.340;2024-01-27T09:55:07;5.30;99.90
17992;DHT22;9121;50.926;5.340;2024-01-27T09:57:38;5.30;99.90
17992;DHT22;9121;50.926;5.340;2024-01-27T10:00:07;5.30;99.90
17992;DHT22;9121;50.926;5.340;2024-01-27T10:02:39;5.30;99.90
17992;DHT22;9121;50.926;5.340;2024-01-27T10:05:08;5.30;99.90
17992;DHT22;9121;50.926;5.340;2024-01-27T10:07:35;5.50;99.90
17992;DHT22;9121;50.926;5.340;2024-01-27T10:10:04;5.50;99.90
17992;DHT22;9121;50.926;5.340;2024-01-27T10:12:32;5.60;99.90
17992;DHT22;9121;50.926;5.340;2024-01-27T10:15:04;5.60;99.90
17992;DHT22;9121;50.926;5.340;2024-01-27T10:17:31;5.70;99.90
17992;DHT22;9121;50.926;5.340;2024-01-27T10:20:03;5.80;99.90
17992;DHT22;9121;50.926;5.340;2024-01-27T10:22:37;5.80;99.90
17992;DHT22;9121;50.926;5.340;2024-01-27T10:25:07;5.80;99.90
17992;DHT22;9121;50.926;5.340;2024-01-27T10:27:35;5.90;99.90
17992;DHT22;9121;50.926;5.340;2024-01-27T10:30:02;5.90;99.90
17992;DHT22;9121;50.926;5.340;2024-01-27T10:32:29;6.10;99.90
17992;DHT22;9121;50.926;5.340;2024-01-27T10:35:02;6.10;99.90
17992;DHT22;9121;50.926;5.340;2024-01-27T10:37:29;6.10;99.90
17992;DHT22;9121;50.926;5.340;2024-01-27T10:40:01;6.20;99.90
17992;DHT22;9121;50.926;5.340;2024-01-27T10:42:30;6.30;99.90
17992;DHT22;9121;50.926;5.340;2024-01-27T10:44:58;6.40;99.90
17992;DHT22;9121;50.926;5.340;2024-01-27T10:47:27;6.40;99.90
17992;DHT22;9121;50.926;5.340;2024-01-27T10:49:56;6.50;99.90
17992;DHT22;9121;50.926;5.340;2024-01-27T10:52:24;6.50;99.90
17992;DHT22;9121;50.926;5.340;2024-01-27T10:54:58;6.50;99.90
17992;DHT22;9121;50.926;5.340;2024-01-27T10:57:26;6.60;99.90
17992;DHT22;9121;50.926;5.340;2024-01-27T10:59:56;6.60;99.90
17992;DHT22;9121;50.926;5.340;2024-01-27T11:02:24;6.70;99.90
17992;DHT22;9121;50.926;5.340;2024-01-27T11:04:51;6.70;99.90
17992;DHT22;9121;50.926;5.340;2024-01-27T11:07:20;6.80;99.90
17992;DHT22;9121;50.926;5.340;2024-01-27T11:09:49;7.00;99.90
17992;DHT22;9121;50.926;5.340;2024-01-27T11:12:18;6.90;99.90
17992;DHT22;9121;50.926;5.340;2024-01-27T11:14:46;7.00;99.90
17992;DHT22;9121;50.926;5.340;2024-01-27T11:17:15;7.10;99.90
17992;DHT22;9121;50.926;5.340;2024-01-27T11:19:44;7.10;99.90
17992;DHT22;9121;50.926;5.340;2024-01-27T11:22:23;7.20;99.90
17992;DHT22;9121;50.926;5.340;2024-01-27T11:24:51;7.30;99.90
17992;DHT22;9121;50.926;5.340;2024-01-27T11:27:18;7.40;99.90
17992;DHT22;9121;50.926;5.340;2024-01-27T11:29:53;7.40;99.90
17992;DHT22;9121;50.926;5.340;2024-01-27T11:32:21;7.30;99.90
17992;DHT22;9121;50.926;5.340;2024-01-27T11:34:48;7.40;99.90
17992;DHT22;9121;50.926;5.340;2024-01-27T11:37:16;7.50;99.90
17992;DHT22;9121;50.926;5.340;2024-01-27T11:39:45;7.50;99.90
17992;DHT22;9121;50.926;5.340;2024-01-27T11:42:13;7.60;99.90
17992;DHT22;9121;50.926;5.340;2024-01-27T11:44:41;7.80;99.90
17992;DHT22;9121;50.926;5.340;2024-01-27T11:47:15;7.90;99.90
17992;DHT22;9121;50.926;5.340;2024-01-27T11:49:50;7.90;99.90
17992;DHT22;9121;50.926;5.340;2024-01-27T11:52:18;8.00;99.90
17992;DHT22;9121;50.926;5.340;2024-01-27T11:54:45;8.00;99.90
17992;DHT22;9121;50.926;5.340;2024-01-27T11:57:12;8.10;99.90
17992;DHT22;9121;50.926;5.340;2024-01-27T11:59:39;8.30;99.90
17992;DHT22;9121;50.926;5.340;2024-01-27T12:02:06;8.40;99.90
17992;DHT22;9121;50.926;5.340;2024-01-27T12:04:33;8.50;99.90
17992;DHT22;9121;50.926;5.340;2024-01-27T12:07:02;8.60;99.90
17992;DHT22;9121;50.926;5.340;2024-01-27T12:09:30;8.60;99.90
17992;DHT22;9121;50.926;5.340;2024-01-27T12:11:57;8.60;99.90
17992;DHT22;9121;50.926;5.340;2024-01-27T12:14:24;8.70;99.90
17992;DHT22;9121;50.926;5.340;2024-01-27T12:16:51;8.70;99.90
17992;DHT22;9121;50.926;5.340;2024-01-27T12:19:19;8.60;99.90
17992;DHT22;9121;50.926;5.340;2024-01-27T12:21:49;8.70;99.90
17992;DHT22;9121;50.926;5.340;2024-01-27T12:24:17;8.70;99.90
17992;DHT22;9121;50.926;5.340;2024-01-27T12:26:45;8.80;99.90
17992;DHT22;9121;50.926;5.340;2024-01-27T12:29:12;9.10;99.90
17992;DHT22;9121;50.926;5.340;2024-01-27T12:31:39;9.20;99.90
17992;DHT22;9121;50.926;5.340;2024-01-27T12:34:07;9.50;99.90
17992;DHT22;9121;50.926;5.340;2024-01-27T12:36:40;9.80;99.90
17992;DHT22;9121;50.926;5.340;2024-01-27T12:39:08;10.10;99.90
17992;DHT22;9121;50.926;5.340;2024-01-27T12:41:37;10.50;99.90
17992;DHT22;9121;50.926;5.340;2024-01-27T12:44:06;10.40;99.90
17992;DHT22;9121;50.926;5.340;2024-01-27T12:46:33;10.50;99.90
17992;DHT22;9121;50.926;5.340;2024-01-27T12:49:00;10.40;99.90
17992;DHT22;9121;50.926;5.340;2024-01-27T12:51:28;10.30;99.90
17992;DHT22;9121;50.926;5.340;2024-01-27T12:53:55;10.20;99.90
17992;DHT22;9121;50.926;5.340;2024-01-27T12:56:22;10.10;99.90
17992;DHT22;9121;50.926;5.340;2024-01-27T12:58:51;10.00;99.90
17992;DHT22;9121;50.926;5.340;2024-01-27T13:01:18;10.10;99.90
17992;DHT22;9121;50.926;5.340;2024-01-27T13:03:45;10.00;99.90
17992;DHT22;9121;50.926;5.340;2024-01-27T13:06:12;10.20;99.90
17992;DHT22;9121;50.926;5.340;2024-01-27T13:08:39;10.60;99.90
17992;DHT22;9121;50.926;5.340;2024-01-27T13:11:07;11.20;99.90
17992;DHT22;9121;50.926;5.340;2024-01-27T13:13:34;11.50;99.90
17992;DHT22;9121;50.926;5.340;2024-01-27T13:16:02;11.40;99.90
17992;DHT22;9121;50.926;5.340;2024-01-27T13:18:29;11.70;99.90
17992;DHT22;9121;50.926;5.340;2024-01-27T13:20:56;12.10;99.90
17992;DHT22;9121;50.926;5.340;2024-01-27T13:23:23;12.20;99.90
17992;DHT22;9121;50.926;5.340;2024-01-27T13:25:50;12.40;99.90
17992;DHT22;9121;50.926;5.340;2024-01-27T13:28:17;12.40;99.90
17992;DHT22;9121;50.926;5.340;2024-01-27T13:30:45;12.40;99.90
17992;DHT22;9121;50.926;5.340;2024-01-27T13:33:15;12.50;99.90
17992;DHT22;9121;50.926;5.340;2024-01-27T13:35:42;12.70;99.90
17992;DHT22;9121;50.926;5.340;2024-01-27T13:38:12;12.50;99.90
17992;DHT22;9121;50.926;5.340;2024-01-27T13:40:39;12.10;99.90
17992;DHT22;9121;50.926;5.340;2024-01-27T13:43:06;11.60;99.90
17992;DHT22;9121;50.926;5.340;2024-01-27T13:45:33;11.20;99.90
17992;DHT22;9121;50.926;5.340;2024-01-27T13:48:00;10.50;99.90
17992;DHT22;9121;50.926;5.340;2024-01-27T13:50:28;10.30;99.90
17992;DHT22;9121;50.926;5.340;2024-01-27T13:52:56;10.20;99.90
17992;DHT22;9121;50.926;5.340;2024-01-27T13:55:23;10.20;99.90
17992;DHT22;9121;50.926;5.340;2024-01-27T13:57:51;10.50;99.90
17992;DHT22;9121;50.926;5.340;2024-01-27T14:00:18;10.50;99.90
17992;DHT22;9121;50.926;5.340;2024-01-27T14:02:46;10.50;99.90
17992;DHT22;9121;50.926;5.340;2024-01-27T14:05:13;10.40;99.90
17992;DHT22;9121;50.926;5.340;2024-01-27T14:07:41;10.20;99.90
17992;DHT22;9121;50.926;5.340;2024-01-27T14:10:09;10.10;99.90
17992;DHT22;9121;50.926;5.340;2024-01-27T14:12:36;9.90;99.90
17992;DHT22;9121;50.926;5.340;2024-01-27T14:15:04;9.70;99.90
17992;DHT22;9121;50.926;5.340;2024-01-27T14:17:32;9.70;99.90
17992;DHT22;9121;50.926;5.340;2024-01-27T14:20:00;9.70;99.90
17992;DHT22;9121;50.926;5.340;2024-01-27T14:22:27;9.70;99.90
17992;DHT22;9121;50.926;5.340;2024-01-27T14:24:56;9.50;99.90
17992;DHT22;9121;50.926;5.340;2024-01-27T14:27:23;9.40;99.90
17992;DHT22;9121;50.926;5.340;2024-01-27T14:29:52;9.40;99.90
17992;DHT22;9121;50.926;5.340;2024-01-27T14:32:20;9.40;99.90
17992;DHT22;9121;50.926;5.340;2024-01-27T14:34:47;9.40;99.90
17992;DHT22;9121;50.926;5.340;2024-01-27T14:37:14;9.40;99.90
17992;DHT22;9121;50.926;5.340;2024-01-27T14:39:42;9.50;99.90
17992;DHT22;9121;50.926;5.340;2024-01-27T14:42:11;9.50;99.90
17992;DHT22;9121;50.926;5.340;2024-01-27T14:44:38;9.50;99.90
17992;DHT22;9121;50.926;5.340;2024-01-27T14:47:06;9.40;99.90
17992;DHT22;9121;50.926;5.340;2024-01-27T14:49:34;9.30;99.90
17992;DHT22;9121;50.926;5.340;2024-01-27T14:52:03;9.30;99.90
17992;DHT22;9121;50.926;5.340;2024-01-27T14:54:30;9.30;99.90
17992;DHT22;9121;50.926;5.340;2024-01-27T14:56:57;9.30;99.90
17992;DHT22;9121;50.926;5.340;2024-01-27T14:59:26;9.30;99.90
17992;DHT22;9121;50.926;5.340;2024-01-27T15:01:54;9.30;99.90
17992;DHT22;9121;50.926;5.340;2024-01-27T15:04:22;9.30;99.90
17992;DHT22;9121;50.926;5.340;2024-01-27T15:06:52;9.30;99.90
17992;DHT22;9121;50.926;5.340;2024-01-27T15:09:19;9.20;99.90
17992;DHT22;9121;50.926;5.340;2024-01-27T15:11:45;9.20;99.90
17992;DHT22;9121;50.926;5.340;2024-01-27T15:14:12;9.20;99.90
17992;DHT22;9121;50.926;5.340;2024-01-27T15:16:41;9.10;99.90
17992;DHT22;9121;50.926;5.340;2024-01-27T15:19:08;9.20;99.90
17992;DHT22;9121;50.926;5.340;2024-01-27T15:21:36;9.20;99.90
17992;DHT22;9121;50.926;5.340;2024-01-27T15:24:03;9.20;99.90
17992;DHT22;9121;50.926;5.340;2024-01-27T15:26:30;9.10;99.90
17992;DHT22;9121;50.926;5.340;2024-01-27T15:28:58;9.00;99.90
17992;DHT22;9121;50.926;5.340;2024-01-27T15:31:25;9.00;99.90
17992;DHT22;9121;50.926;5.340;2024-01-27T15:33:53;8.90;99.90
17992;DHT22;9121;50.926;5.340;2024-01-27T15:36:20;8.90;99.90
17992;DHT22;9121;50.926;5.340;2024-01-27T15:38:47;8.80;99.90
17992;DHT22;9121;50.926;5.340;2024-01-27T15:41:14;8.80;99.90
17992;DHT22;9121;50.926;5.340;2024-01-27T15:43:44;8.70;99.90
17992;DHT22;9121;50.926;5.340;2024-01-27T15:46:13;8.70;99.90
17992;DHT22;9121;50.926;5.340;2024-01-27T15:48:40;8.70;99.90
17992;DHT22;9121;50.926;5.340;2024-01-27T15:51:08;8.70;99.90
17992;DHT22;9121;50.926;5.340;2024-01-27T15:53:35;8.70;99.90
17992;DHT22;9121;50.926;5.340;2024-01-27T15:56:02;8.70;99.90
17992;DHT22;9121;50.926;5.340;2024-01-27T15:58:29;8.70;99.90
17992;DHT22;9121;50.926;5.340;2024-01-27T16:00:56;8.60;99.90
17992;DHT22;9121;50.926;5.340;2024-01-27T16:03:23;8.60;99.90